createdAt,value
2022-12-27T00:13:13.808Z,4.33
2022-12-27T00:28:16.008Z,4.24
2022-12-27T00:43:18.230Z,4.8
2022-12-27T00:58:20.479Z,4.77
2022-12-27T01:13:22.682Z,4.62
2022-12-27T01:28:24.920Z,4.64
2022-12-27T01:43:27.184Z,4.83
2022-12-27T01:58:29.414Z,4.84
2022-12-27T02:13:31.642Z,5.06
2022-12-27T02:28:33.902Z,4.46
2022-12-27T02:43:36.071Z,3.95
2022-12-27T02:58:38.464Z,4.78
2022-12-27T03:13:40.681Z,4.79
2022-12-27T03:28:43.036Z,4.34
2022-12-27T03:43:45.565Z,5
2022-12-27T03:58:48.282Z,4.75
2022-12-27T04:13:51.132Z,4.83
2022-12-27T04:28:53.490Z,4.89
2022-12-27T04:43:55.742Z,4.79
2022-12-27T04:58:58.681Z,4.85
2022-12-27T05:14:00.917Z,4.73
2022-12-27T05:29:03.197Z,4.73
2022-12-27T05:44:07.420Z,4.36
2022-12-27T05:59:10.450Z,3.92
2022-12-27T06:14:12.688Z,4.36
2022-12-27T06:29:14.905Z,4.38
2022-12-27T06:44:17.134Z,4.29
2022-12-27T06:59:19.365Z,4.59
2022-12-27T07:14:21.616Z,4.98
2022-12-27T07:29:23.849Z,4.48
2022-12-27T07:44:26.058Z,4.69
2022-12-27T07:59:28.274Z,4.76
2022-12-27T08:14:30.496Z,4.96
2022-12-27T08:29:32.702Z,4.8
2022-12-27T08:44:35.159Z,4.93
2022-12-27T08:59:37.498Z,4.35
2022-12-27T09:14:39.718Z,4.75
2022-12-27T09:29:48.098Z,4.94
2022-12-27T09:44:51.100Z,4.83
2022-12-27T09:59:53.354Z,4.74
2022-12-27T10:14:55.589Z,4.5
2022-12-27T10:29:58.113Z,4.06
2022-12-27T10:45:00.388Z,4.52
2022-12-27T11:00:02.584Z,4.41
2022-12-27T11:15:04.896Z,4.12
2022-12-27T11:30:07.092Z,4.65
2022-12-27T11:45:09.438Z,4.62
2022-12-27T12:00:11.698Z,4.18
2022-12-27T12:15:14.055Z,4.69
2022-12-27T12:30:16.267Z,4.53
2022-12-27T12:45:18.533Z,4.25
2022-12-27T13:00:20.862Z,4.39
2022-12-27T13:15:23.072Z,4.75
2022-12-27T13:30:25.290Z,3.79
2022-12-27T13:45:27.485Z,4.32
2022-12-27T14:00:29.777Z,4.53
2022-12-27T14:15:32.044Z,4.5
2022-12-27T14:30:34.342Z,4.55
2022-12-27T14:45:36.550Z,4.37
2022-12-27T15:00:38.783Z,4.87
2022-12-27T15:15:41.070Z,4.81
2022-12-27T15:30:43.405Z,4.68
2022-12-27T15:45:45.723Z,4.92
2022-12-27T16:00:48.063Z,4.78
2022-12-27T16:15:50.892Z,4.54
2022-12-27T16:30:53.280Z,4.04
2022-12-27T16:45:55.514Z,4.8
2022-12-27T17:00:57.839Z,4.88
2022-12-27T17:16:00.187Z,3.9
2022-12-27T17:31:02.440Z,4.6
2022-12-27T17:46:04.780Z,4.98
2022-12-27T18:01:07.092Z,4.79
2022-12-27T18:16:09.444Z,4.89
2022-12-27T18:31:12.362Z,5.08
2022-12-27T18:46:14.674Z,4.99
2022-12-27T19:01:17.137Z,5.04
2022-12-27T19:16:19.500Z,4.92
2022-12-27T19:31:22.133Z,5.29
2022-12-27T19:46:30.536Z,5.45
2022-12-27T20:01:33.602Z,5.49
2022-12-27T20:16:35.945Z,5.58
2022-12-27T20:31:44.676Z,5.59
2022-12-27T20:46:47.758Z,5.85
2022-12-27T21:01:56.554Z,5.29
2022-12-27T21:16:59.646Z,5.33
2022-12-27T21:32:01.992Z,5.92
2022-12-27T21:47:04.260Z,5.72
2022-12-27T22:02:06.679Z,5.72
2022-12-27T22:17:09.169Z,5.99
2022-12-27T22:32:11.423Z,5.66
2022-12-27T22:47:27.391Z,5.83
2022-12-27T23:02:30.645Z,5.69
2022-12-27T23:17:32.958Z,5.41
2022-12-27T23:32:35.216Z,5.52
2022-12-27T23:47:37.732Z,5.49
